sensor_id;sensor_type;location;lat;lon;timestamp;pressure;altitude;pressure_sealevel;temperature;humidity
15568;BME280;7885;42.596;23.044;2023-05-22T00:00:09;92714.16;;;14.37;93.64
15568;BME280;7885;42.596;23.044;2023-05-22T00:02:38;92722.69;;;14.39;93.74
15568;BME280;7885;42.596;23.044;2023-05-22T00:05:07;92716.16;;;14.33;93.16
15568;BME280;7885;42.596;23.044;2023-05-22T00:07:35;92716.44;;;14.39;93.53
15568;BME280;7885;42.596;23.044;2023-05-22T00:10:03;92720.38;;;14.38;93.92
15568;BME280;7885;42.596;23.044;2023-05-22T00:12:29;92719.63;;;14.37;93.59
15568;BME280;7885;42.596;23.044;2023-05-22T00:14:56;92713.91;;;14.28;94.53
15568;BME280;7885;42.596;23.044;2023-05-22T00:17:24;92711.66;;;14.23;94.74
15568;BME280;7885;42.596;23.044;2023-05-22T00:19:52;92698.13;;;14.16;95.23
15568;BME280;7885;42.596;23.044;2023-05-22T00:22:19;92706.81;;;14.11;96.12
15568;BME280;7885;42.596;23.044;2023-05-22T00:24:46;92714.53;;;14.16;96.87
15568;BME280;7885;42.596;23.044;2023-05-22T00:27:13;92729.34;;;14.18;97.02
15568;BME280;7885;42.596;23.044;2023-05-22T00:29:40;92718.00;;;14.20;96.40
15568;BME280;7885;42.596;23.044;2023-05-22T00:32:06;92709.72;;;14.24;96.45
15568;BME280;7885;42.596;23.044;2023-05-22T00:34:33;92711.31;;;14.21;96.19
15568;BME280;7885;42.596;23.044;2023-05-22T00:37:01;92708.94;;;14.23;96.42
15568;BME280;7885;42.596;23.044;2023-05-22T00:39:28;92712.94;;;14.18;96.15
15568;BME280;7885;42.596;23.044;2023-05-22T00:41:55;92713.69;;;14.19;96.22
15568;BME280;7885;42.596;23.044;2023-05-22T00:44:21;92716.00;;;14.21;95.92
15568;BME280;7885;42.596;23.044;2023-05-22T00:46:49;92716.78;;;14.21;96.22
15568;BME280;7885;42.596;23.044;2023-05-22T00:49:16;92716.84;;;14.17;96.28
15568;BME280;7885;42.596;23.044;2023-05-22T00:51:43;92702.13;;;14.11;96.50
15568;BME280;7885;42.596;23.044;2023-05-22T00:54:11;92705.97;;;14.14;96.31
15568;BME280;7885;42.596;23.044;2023-05-22T00:56:39;92704.09;;;14.11;96.80
15568;BME280;7885;42.596;23.044;2023-05-22T00:59:06;92711.19;;;13.89;97.40
15568;BME280;7885;42.596;23.044;2023-05-22T01:01:33;92713.53;;;13.87;97.83
15568;BME280;7885;42.596;23.044;2023-05-22T01:04:03;92703.56;;;13.77;98.45
15568;BME280;7885;42.596;23.044;2023-05-22T01:06:32;92704.16;;;13.88;98.32
15568;BME280;7885;42.596;23.044;2023-05-22T01:08:59;92700.50;;;13.94;98.08
15568;BME280;7885;42.596;23.044;2023-05-22T01:11:37;92700.16;;;13.92;98.53
15568;BME280;7885;42.596;23.044;2023-05-22T01:14:13;92709.50;;;13.95;98.58
15568;BME280;7885;42.596;23.044;2023-05-22T01:16:51;92708.31;;;13.96;98.79
15568;BME280;7885;42.596;23.044;2023-05-22T01:19:42;92702.97;;;14.08;98.11
15568;BME280;7885;42.596;23.044;2023-05-22T01:22:29;92706.75;;;14.14;97.42
15568;BME280;7885;42.596;23.044;2023-05-22T01:25:15;92708.28;;;14.15;97.38
15568;BME280;7885;42.596;23.044;2023-05-22T01:28:01;92704.78;;;14.15;97.06
15568;BME280;7885;42.596;23.044;2023-05-22T01:30:46;92708.03;;;14.10;96.62
15568;BME280;7885;42.596;23.044;2023-05-22T01:33:14;92697.75;;;13.94;98.01
15568;BME280;7885;42.596;23.044;2023-05-22T01:35:45;92679.19;;;13.86;97.83
15568;BME280;7885;42.596;23.044;2023-05-22T01:38:13;92692.69;;;13.93;97.96
15568;BME280;7885;42.596;23.044;2023-05-22T01:40:41;92691.66;;;13.87;98.48
15568;BME280;7885;42.596;23.044;2023-05-22T01:43:10;92689.97;;;13.73;99.20
15568;BME280;7885;42.596;23.044;2023-05-22T01:45:38;92686.75;;;13.78;99.62
15568;BME280;7885;42.596;23.044;2023-05-22T01:48:06;92683.31;;;13.74;99.88
15568;BME280;7885;42.596;23.044;2023-05-22T01:50:33;92690.28;;;13.79;99.45
15568;BME280;7885;42.596;23.044;2023-05-22T01:53:06;92685.97;;;13.78;98.81
15568;BME280;7885;42.596;23.044;2023-05-22T01:55:40;92688.50;;;13.69;99.03
15568;BME280;7885;42.596;23.044;2023-05-22T01:58:15;92684.16;;;13.71;98.85
15568;BME280;7885;42.596;23.044;2023-05-22T02:00:46;92684.09;;;13.75;99.10
15568;BME280;7885;42.596;23.044;2023-05-22T02:03:18;92674.00;;;13.72;99.33
15568;BME280;7885;42.596;23.044;2023-05-22T02:05:48;92678.63;;;13.75;99.64
15568;BME280;7885;42.596;23.044;2023-05-22T02:08:16;92684.78;;;13.79;99.05
15568;BME280;7885;42.596;23.044;2023-05-22T02:10:44;92692.50;;;13.84;98.33
15568;BME280;7885;42.596;23.044;2023-05-22T02:13:11;92693.34;;;13.81;98.19
15568;BME280;7885;42.596;23.044;2023-05-22T02:15:38;92691.44;;;13.78;98.67
15568;BME280;7885;42.596;23.044;2023-05-22T02:18:09;92689.91;;;13.77;98.73
15568;BME280;7885;42.596;23.044;2023-05-22T02:20:38;92690.75;;;13.74;99.35
15568;BME280;7885;42.596;23.044;2023-05-22T02:23:05;92683.59;;;13.80;99.22
15568;BME280;7885;42.596;23.044;2023-05-22T02:25:31;92691.19;;;13.72;98.88
15568;BME280;7885;42.596;23.044;2023-05-22T02:27:58;92681.13;;;13.65;99.39
15568;BME280;7885;42.596;23.044;2023-05-22T02:30:25;92688.75;;;13.54;99.86
15568;BME280;7885;42.596;23.044;2023-05-22T02:32:52;92686.88;;;13.51;100.00
15568;BME280;7885;42.596;23.044;2023-05-22T02:35:19;92693.03;;;13.55;100.00
15568;BME280;7885;42.596;23.044;2023-05-22T02:37:47;92663.56;;;13.43;100.00
15568;BME280;7885;42.596;23.044;2023-05-22T02:40:13;92694.44;;;13.63;100.00
15568;BME280;7885;42.596;23.044;2023-05-22T02:42:40;92690.16;;;13.62;100.00
15568;BME280;7885;42.596;23.044;2023-05-22T02:45:08;92683.03;;;13.69;100.00
15568;BME280;7885;42.596;23.044;2023-05-22T02:47:35;92675.66;;;13.65;100.00
15568;BME280;7885;42.596;23.044;2023-05-22T02:50:02;92689.06;;;13.80;100.00
15568;BME280;7885;42.596;23.044;2023-05-22T02:52:29;92684.78;;;13.79;100.00
15568;BME280;7885;42.596;23.044;2023-05-22T02:54:57;92683.59;;;13.80;99.68
15568;BME280;7885;42.596;23.044;2023-05-22T02:57:23;92690.94;;;13.83;99.16
15568;BME280;7885;42.596;23.044;2023-05-22T02:59:50;92676.34;;;13.70;99.57
15568;BME280;7885;42.596;23.044;2023-05-22T03:02:18;92679.53;;;13.68;99.71
15568;BME280;7885;42.596;23.044;2023-05-22T03:04:45;92687.78;;;13.64;99.53
15568;BME280;7885;42.596;23.044;2023-05-22T03:07:11;92687.78;;;13.64;99.68
15568;BME280;7885;42.596;23.044;2023-05-22T03:09:38;92675.22;;;13.47;99.51
15568;BME280;7885;42.596;23.044;2023-05-22T03:12:07;92681.88;;;13.66;99.62
15568;BME280;7885;42.596;23.044;2023-05-22T03:14:34;92681.81;;;13.70;99.46
15568;BME280;7885;42.596;23.044;2023-05-22T03:17:01;92681.03;;;13.69;99.72
15568;BME280;7885;42.596;23.044;2023-05-22T03:19:28;92682.53;;;13.74;99.33
15568;BME280;7885;42.596;23.044;2023-05-22T03:21:54;92685.28;;;13.74;99.08
15568;BME280;7885;42.596;23.044;2023-05-22T03:24:21;92689.69;;;13.68;99.37
15568;BME280;7885;42.596;23.044;2023-05-22T03:26:48;92691.00;;;13.59;99.92
15568;BME280;7885;42.596;23.044;2023-05-22T03:29:16;92693.97;;;13.69;99.96
15568;BME280;7885;42.596;23.044;2023-05-22T03:31:43;92704.47;;;13.70;99.68
15568;BME280;7885;42.596;23.044;2023-05-22T03:34:10;92704.91;;;13.69;99.98
15568;BME280;7885;42.596;23.044;2023-05-22T03:36:36;92706.94;;;13.64;99.81
15568;BME280;7885;42.596;23.044;2023-05-22T03:39:04;92698.72;;;13.64;99.95
15568;BME280;7885;42.596;23.044;2023-05-22T03:41:30;92678.16;;;13.56;99.91
15568;BME280;7885;42.596;23.044;2023-05-22T03:43:57;92701.06;;;13.86;99.50
15568;BME280;7885;42.596;23.044;2023-05-22T03:46:25;92699.31;;;13.95;98.77
15568;BME280;7885;42.596;23.044;2023-05-22T03:48:52;92706.88;;;14.07;98.64
15568;BME280;7885;42.596;23.044;2023-05-22T03:51:19;92707.66;;;14.08;97.89
15568;BME280;7885;42.596;23.044;2023-05-22T03:53:46;92709.22;;;14.09;98.21
15568;BME280;7885;42.596;23.044;2023-05-22T03:56:12;92710.47;;;14.24;97.76
15568;BME280;7885;42.596;23.044;2023-05-22T03:58:39;92712.00;;;14.25;97.46
15568;BME280;7885;42.596;23.044;2023-05-22T04:01:06;92715.94;;;14.24;96.45
15568;BME280;7885;42.596;23.044;2023-05-22T04:03:35;92706.75;;;14.34;97.55
15568;BME280;7885;42.596;23.044;2023-05-22T04:06:02;92697.13;;;14.46;97.97
15568;BME280;7885;42.596;23.044;2023-05-22T04:08:29;92708.97;;;14.59;96.89
15568;BME280;7885;42.596;23.044;2023-05-22T04:10:56;92706.38;;;14.72;94.52
15568;BME280;7885;42.596;23.044;2023-05-22T04:13:23;92703.81;;;14.81;93.46
15568;BME280;7885;42.596;23.044;2023-05-22T04:15:50;92709.81;;;14.92;93.06
15568;BME280;7885;42.596;23.044;2023-05-22T04:18:17;92703.31;;;15.02;92.93
15568;BME280;7885;42.596;23.044;2023-05-22T04:20:45;92707.09;;;15.08;92.30
15568;BME280;7885;42.596;23.044;2023-05-22T04:23:12;92688.34;;;15.06;91.85
15568;BME280;7885;42.596;23.044;2023-05-22T04:25:39;92697.06;;;15.17;91.00
15568;BME280;7885;42.596;23.044;2023-05-22T04:28:06;92705.88;;;15.25;90.18
15568;BME280;7885;42.596;23.044;2023-05-22T04:30:33;92709.66;;;15.31;92.14
15568;BME280;7885;42.596;23.044;2023-05-22T04:33:01;92689.97;;;15.20;89.32
15568;BME280;7885;42.596;23.044;2023-05-22T04:35:29;92710.78;;;15.34;90.09
15568;BME280;7885;42.596;23.044;2023-05-22T04:37:58;92715.81;;;15.35;89.03
15568;BME280;7885;42.596;23.044;2023-05-22T04:40:26;92714.09;;;15.41;90.23
15568;BME280;7885;42.596;23.044;2023-05-22T04:42:54;92714.28;;;15.34;90.01
15568;BME280;7885;42.596;23.044;2023-05-22T04:45:24;92721.47;;;15.28;90.93
15568;BME280;7885;42.596;23.044;2023-05-22T04:47:50;92724.75;;;15.23;91.43
15568;BME280;7885;42.596;23.044;2023-05-22T04:50:18;92719.28;;;15.23;91.56
15568;BME280;7885;42.596;23.044;2023-05-22T04:52:45;92725.53;;;15.24;91.60
15568;BME280;7885;42.596;23.044;2023-05-22T04:55:13;92721.47;;;15.12;92.38
15568;BME280;7885;42.596;23.044;2023-05-22T04:57:40;92727.13;;;15.21;92.45
15568;BME280;7885;42.596;23.044;2023-05-22T05:00:09;92725.78;;;15.13;92.53
15568;BME280;7885;42.596;23.044;2023-05-22T05:02:38;92730.22;;;15.23;92.60
15568;BME280;7885;42.596;23.044;2023-05-22T05:05:05;92725.69;;;15.33;92.21
15568;BME280;7885;42.596;23.044;2023-05-22T05:07:35;92726.78;;;15.35;92.68
15568;BME280;7885;42.596;23.044;2023-05-22T05:10:03;92726.78;;;15.35;92.65
15568;BME280;7885;42.596;23.044;2023-05-22T05:12:31;92718.56;;;15.35;92.86
15568;BME280;7885;42.596;23.044;2023-05-22T05:14:57;92723.44;;;15.28;92.76
15568;BME280;7885;42.596;23.044;2023-05-22T05:17:24;92729.72;;;15.28;93.28
15568;BME280;7885;42.596;23.044;2023-05-22T05:19:51;92699.97;;;15.10;93.42
15568;BME280;7885;42.596;23.044;2023-05-22T05:22:18;92737.25;;;15.24;94.01
15568;BME280;7885;42.596;23.044;2023-05-22T05:24:44;92737.75;;;15.19;93.89
15568;BME280;7885;42.596;23.044;2023-05-22T05:27:11;92732.28;;;15.03;94.14
15568;BME280;7885;42.596;23.044;2023-05-22T05:29:39;92733.63;;;15.11;94.28
15568;BME280;7885;42.596;23.044;2023-05-22T05:32:06;92730.19;;;15.07;94.34
15568;BME280;7885;42.596;23.044;2023-05-22T05:34:34;92741.44;;;15.12;93.75
15568;BME280;7885;42.596;23.044;2023-05-22T05:37:01;92740.66;;;15.12;94.61
15568;BME280;7885;42.596;23.044;2023-05-22T05:39:28;92737.06;;;15.15;94.52
15568;BME280;7885;42.596;23.044;2023-05-22T05:41:55;92743.41;;;15.28;94.05
15568;BME280;7885;42.596;23.044;2023-05-22T05:44:21;92730.22;;;15.23;93.26
15568;BME280;7885;42.596;23.044;2023-05-22T05:46:49;92743.06;;;15.42;92.95
15568;BME280;7885;42.596;23.044;2023-05-22T05:49:18;92748.34;;;15.53;93.15
15568;BME280;7885;42.596;23.044;2023-05-22T05:51:44;92734.22;;;15.54;91.88
15568;BME280;7885;42.596;23.044;2023-05-22T05:54:11;92747.91;;;15.71;89.58
15568;BME280;7885;42.596;23.044;2023-05-22T05:56:38;92748.03;;;15.96;91.40
15568;BME280;7885;42.596;23.044;2023-05-22T05:59:05;92757.59;;;16.20;90.47
15568;BME280;7885;42.596;23.044;2023-05-22T06:01:33;92750.66;;;16.44;88.66
15568;BME280;7885;42.596;23.044;2023-05-22T06:04:01;92755.34;;;16.73;87.20
15568;BME280;7885;42.596;23.044;2023-05-22T06:06:30;92759.69;;;16.99;83.79
15568;BME280;7885;42.596;23.044;2023-05-22T06:12:21;92757.91;;;17.81;81.35
15568;BME280;7885;42.596;23.044;2023-05-22T06:14:48;92750.59;;;17.99;74.75
15568;BME280;7885;42.596;23.044;2023-05-22T06:17:15;92760.44;;;18.22;76.71
15568;BME280;7885;42.596;23.044;2023-05-22T06:19:43;92760.25;;;18.38;74.42
15568;BME280;7885;42.596;23.044;2023-05-22T06:22:09;92761.56;;;18.46;72.54
15568;BME280;7885;42.596;23.044;2023-05-22T06:24:36;92757.91;;;18.49;69.71
15568;BME280;7885;42.596;23.044;2023-05-22T06:27:03;92758.97;;;18.64;69.10
15568;BME280;7885;42.596;23.044;2023-05-22T06:29:30;92765.88;;;18.69;66.66
15568;BME280;7885;42.596;23.044;2023-05-22T06:31:57;92757.13;;;18.61;64.97
15568;BME280;7885;42.596;23.044;2023-05-22T06:34:23;92760.66;;;18.49;68.06
15568;BME280;7885;42.596;23.044;2023-05-22T06:37:12;92747.88;;;18.55;65.61
15568;BME280;7885;42.596;23.044;2023-05-22T06:39:39;92753.00;;;18.66;64.36
15568;BME280;7885;42.596;23.044;2023-05-22T06:42:06;92748.63;;;18.78;63.47
15568;BME280;7885;42.596;23.044;2023-05-22T06:44:32;92749.53;;;18.75;60.84
15568;BME280;7885;42.596;23.044;2023-05-22T06:46:59;92750.50;;;18.81;60.54
15568;BME280;7885;42.596;23.044;2023-05-22T06:49:26;92754.16;;;18.78;59.09
15568;BME280;7885;42.596;23.044;2023-05-22T06:51:52;92746.19;;;18.80;59.03
15568;BME280;7885;42.596;23.044;2023-05-22T06:54:21;92738.25;;;18.82;56.97
15568;BME280;7885;42.596;23.044;2023-05-22T06:56:47;92743.50;;;18.89;56.84
15568;BME280;7885;42.596;23.044;2023-05-22T06:59:14;92756.38;;;18.92;57.47
15568;BME280;7885;42.596;23.044;2023-05-22T07:01:41;92749.28;;;18.82;56.66
15568;BME280;7885;42.596;23.044;2023-05-22T07:04:08;92741.91;;;18.79;57.99
15568;BME280;7885;42.596;23.044;2023-05-22T07:06:36;92754.13;;;18.99;59.01
15568;BME280;7885;42.596;23.044;2023-05-22T07:09:06;92724.19;;;18.89;59.73
15568;BME280;7885;42.596;23.044;2023-05-22T07:11:34;92754.34;;;19.14;57.70
15568;BME280;7885;42.596;23.044;2023-05-22T07:14:01;92753.16;;;19.24;56.05
15568;BME280;7885;42.596;23.044;2023-05-22T07:16:28;92737.59;;;19.30;56.17
15568;BME280;7885;42.596;23.044;2023-05-22T07:18:55;92742.63;;;19.32;57.17
15568;BME280;7885;42.596;23.044;2023-05-22T07:21:22;92740.13;;;19.46;58.55
15568;BME280;7885;42.596;23.044;2023-05-22T07:23:49;92742.19;;;19.64;55.06
15568;BME280;7885;42.596;23.044;2023-05-22T07:26:16;92737.56;;;19.61;53.63
15568;BME280;7885;42.596;23.044;2023-05-22T07:28:44;92734.97;;;19.76;55.01
15568;BME280;7885;42.596;23.044;2023-05-22T07:31:11;92743.13;;;19.79;56.13
15568;BME280;7885;42.596;23.044;2023-05-22T07:33:37;92744.38;;;19.87;55.91
15568;BME280;7885;42.596;23.044;2023-05-22T07:36:05;92736.56;;;19.95;55.51
15568;BME280;7885;42.596;23.044;2023-05-22T07:38:31;92731.19;;;20.00;55.66
15568;BME280;7885;42.596;23.044;2023-05-22T07:40:58;92742.09;;;20.04;54.94
15568;BME280;7885;42.596;23.044;2023-05-22T07:43:25;92738.44;;;20.16;55.51
15568;BME280;7885;42.596;23.044;2023-05-22T07:45:53;92728.00;;;20.20;56.81
15568;BME280;7885;42.596;23.044;2023-05-22T07:48:19;92742.47;;;20.33;57.73
15568;BME280;7885;42.596;23.044;2023-05-22T07:50:46;92726.19;;;20.44;57.20
15568;BME280;7885;42.596;23.044;2023-05-22T07:53:14;92729.09;;;20.50;58.38
15568;BME280;7885;42.596;23.044;2023-05-22T07:55:41;92730.75;;;20.84;58.92
15568;BME280;7885;42.596;23.044;2023-05-22T07:58:08;92735.69;;;20.80;56.55
15568;BME280;7885;42.596;23.044;2023-05-22T08:00:35;92738.47;;;20.71;53.50
15568;BME280;7885;42.596;23.044;2023-05-22T08:03:03;92732.59;;;20.87;54.41
15568;BME280;7885;42.596;23.044;2023-05-22T08:05:30;92741.94;;;20.89;55.34
15568;BME280;7885;42.596;23.044;2023-05-22T08:07:56;92741.78;;;20.93;53.93
15568;BME280;7885;42.596;23.044;2023-05-22T08:10:23;92743.34;;;21.03;53.59
15568;BME280;7885;42.596;23.044;2023-05-22T08:12:50;92739.31;;;21.22;52.36
15568;BME280;7885;42.596;23.044;2023-05-22T08:15:16;92738.31;;;21.43;53.01
15568;BME280;7885;42.596;23.044;2023-05-22T08:17:43;92751.06;;;21.50;53.85
15568;BME280;7885;42.596;23.044;2023-05-22T08:20:12;92751.00;;;21.59;52.02
15568;BME280;7885;42.596;23.044;2023-05-22T08:22:38;92742.44;;;21.81;53.48
15568;BME280;7885;42.596;23.044;2023-05-22T08:25:06;92741.47;;;21.93;53.41
15568;BME280;7885;42.596;23.044;2023-05-22T08:27:32;92742.09;;;21.88;51.09
15568;BME280;7885;42.596;23.044;2023-05-22T08:30:00;92743.22;;;21.81;51.73
15568;BME280;7885;42.596;23.044;2023-05-22T08:32:28;92748.22;;;21.68;51.36
15568;BME280;7885;42.596;23.044;2023-05-22T08:34:54;92738.59;;;21.54;51.18
15568;BME280;7885;42.596;23.044;2023-05-22T08:37:22;92746.56;;;21.61;50.68
15568;BME280;7885;42.596;23.044;2023-05-22T08:39:49;92750.28;;;21.49;52.30
15568;BME280;7885;42.596;23.044;2023-05-22T08:42:16;92753.25;;;21.79;51.60
15568;BME280;7885;42.596;23.044;2023-05-22T08:44:42;92752.00;;;21.80;51.39
15568;BME280;7885;42.596;23.044;2023-05-22T08:47:10;92741.78;;;21.95;52.60
15568;BME280;7885;42.596;23.044;2023-05-22T08:49:38;92749.16;;;21.98;52.21
15568;BME280;7885;42.596;23.044;2023-05-22T08:52:09;92743.09;;;22.32;51.41
15568;BME280;7885;42.596;23.044;2023-05-22T08:54:40;92751.28;;;22.89;51.49
15568;BME280;7885;42.596;23.044;2023-05-22T08:57:07;92746.13;;;23.26;49.60
15568;BME280;7885;42.596;23.044;2023-05-22T08:59:37;92729.00;;;23.27;49.68
15568;BME280;7885;42.596;23.044;2023-05-22T09:02:04;92735.91;;;23.46;48.45
15568;BME280;7885;42.596;23.044;2023-05-22T09:04:31;92735.31;;;23.72;50.19
15568;BME280;7885;42.596;23.044;2023-05-22T09:06:58;92745.97;;;23.93;50.82
15568;BME280;7885;42.596;23.044;2023-05-22T09:09:30;92734.38;;;23.95;47.29
15568;BME280;7885;42.596;23.044;2023-05-22T09:11:58;92722.94;;;23.93;47.54
15568;BME280;7885;42.596;23.044;2023-05-22T09:14:25;92743.69;;;23.92;45.77
15568;BME280;7885;42.596;23.044;2023-05-22T09:16:52;92731.59;;;23.95;44.86
15568;BME280;7885;42.596;23.044;2023-05-22T09:19:19;92736.31;;;23.89;43.65
15568;BME280;7885;42.596;23.044;2023-05-22T09:21:46;92735.84;;;23.76;43.43
15568;BME280;7885;42.596;23.044;2023-05-22T09:24:13;92725.91;;;24.04;45.02
15568;BME280;7885;42.596;23.044;2023-05-22T09:26:39;92733.19;;;24.36;43.25
15568;BME280;7885;42.596;23.044;2023-05-22T09:29:08;92733.75;;;24.40;42.86
15568;BME280;7885;42.596;23.044;2023-05-22T09:31:39;92731.34;;;24.94;42.14
15568;BME280;7885;42.596;23.044;2023-05-22T09:34:07;92726.88;;;25.02;41.22
15568;BME280;7885;42.596;23.044;2023-05-22T09:36:35;92720.88;;;25.09;40.78
15568;BME280;7885;42.596;23.044;2023-05-22T09:39:02;92729.56;;;25.17;40.18
15568;BME280;7885;42.596;23.044;2023-05-22T09:41:32;92724.19;;;24.87;42.35
15568;BME280;7885;42.596;23.044;2023-05-22T09:43:59;92733.94;;;24.77;40.71
15568;BME280;7885;42.596;23.044;2023-05-22T09:46:27;92739.00;;;24.18;40.71
15568;BME280;7885;42.596;23.044;2023-05-22T09:48:54;92730.84;;;23.80;41.13
15568;BME280;7885;42.596;23.044;2023-05-22T09:51:21;92736.44;;;24.00;42.30
15568;BME280;7885;42.596;23.044;2023-05-22T09:53:49;92736.19;;;23.98;42.24
15568;BME280;7885;42.596;23.044;2023-05-22T09:56:17;92721.66;;;23.88;41.13
15568;BME280;7885;42.596;23.044;2023-05-22T09:58:48;92734.22;;;23.84;41.68
15568;BME280;7885;42.596;23.044;2023-05-22T10:01:18;92733.31;;;23.57;41.61
15568;BME280;7885;42.596;23.044;2023-05-22T10:03:46;92738.16;;;23.62;41.99
15568;BME280;7885;42.596;23.044;2023-05-22T10:06:17;92734.91;;;23.79;41.72
15568;BME280;7885;42.596;23.044;2023-05-22T10:08:49;92723.31;;;23.65;39.74
15568;BME280;7885;42.596;23.044;2023-05-22T10:11:20;92738.22;;;23.83;42.15
15568;BME280;7885;42.596;23.044;2023-05-22T10:13:47;92722.84;;;24.17;39.73
15568;BME280;7885;42.596;23.044;2023-05-22T10:16:15;92718.50;;;24.56;39.23
15568;BME280;7885;42.596;23.044;2023-05-22T10:18:45;92722.94;;;24.48;36.34
15568;BME280;7885;42.596;23.044;2023-05-22T10:21:14;92721.03;;;23.99;36.55
15568;BME280;7885;42.596;23.044;2023-05-22T10:23:42;92728.22;;;23.56;38.41
15568;BME280;7885;42.596;23.044;2023-05-22T10:26:10;92717.59;;;23.40;38.55
15568;BME280;7885;42.596;23.044;2023-05-22T10:28:39;92720.66;;;23.56;40.36
15568;BME280;7885;42.596;23.044;2023-05-22T10:31:15;92719.25;;;23.46;40.47
15568;BME280;7885;42.596;23.044;2023-05-22T10:33:47;92726.88;;;23.07;39.47
15568;BME280;7885;42.596;23.044;2023-05-22T10:36:26;92736.28;;;22.95;40.64
15568;BME280;7885;42.596;23.044;2023-05-22T10:39:09;92723.03;;;22.76;43.36
15568;BME280;7885;42.596;23.044;2023-05-22T10:41:40;92722.97;;;22.85;43.53
15568;BME280;7885;42.596;23.044;2023-05-22T10:44:07;92724.97;;;22.84;44.11
15568;BME280;7885;42.596;23.044;2023-05-22T10:46:35;92726.13;;;22.92;44.85
15568;BME280;7885;42.596;23.044;2023-05-22T10:49:03;92728.94;;;22.69;44.57
15568;BME280;7885;42.596;23.044;2023-05-22T10:51:31;92719.72;;;22.62;46.25
15568;BME280;7885;42.596;23.044;2023-05-22T10:53:59;92712.44;;;22.50;47.07
15568;BME280;7885;42.596;23.044;2023-05-22T10:56:31;92711.13;;;22.60;48.20
15568;BME280;7885;42.596;23.044;2023-05-22T10:59:01;92715.38;;;22.71;48.42
15568;BME280;7885;42.596;23.044;2023-05-22T11:01:29;92713.66;;;22.73;47.69
15568;BME280;7885;42.596;23.044;2023-05-22T11:04:00;92712.34;;;22.98;48.31
15568;BME280;7885;42.596;23.044;2023-05-22T11:06:34;92715.00;;;23.07;47.81
15568;BME280;7885;42.596;23.044;2023-05-22T11:09:16;92708.13;;;23.17;48.61
15568;BME280;7885;42.596;23.044;2023-05-22T11:11:44;92713.78;;;23.37;47.97
15568;BME280;7885;42.596;23.044;2023-05-22T11:14:11;92702.56;;;23.46;46.31
15568;BME280;7885;42.596;23.044;2023-05-22T11:16:38;92710.13;;;23.31;47.23
15568;BME280;7885;42.596;23.044;2023-05-22T11:19:05;92724.03;;;23.02;49.89
15568;BME280;7885;42.596;23.044;2023-05-22T11:21:41;92728.88;;;22.78;52.20
15568;BME280;7885;42.596;23.044;2023-05-22T11:24:08;92721.63;;;22.56;53.58
15568;BME280;7885;42.596;23.044;2023-05-22T11:26:35;92737.63;;;22.23;54.77
15568;BME280;7885;42.596;23.044;2023-05-22T11:29:05;92741.13;;;22.00;56.69
15568;BME280;7885;42.596;23.044;2023-05-22T11:31:34;92733.97;;;21.84;56.61
15568;BME280;7885;42.596;23.044;2023-05-22T11:34:01;92728.25;;;21.55;56.57
15568;BME280;7885;42.596;23.044;2023-05-22T11:36:28;92731.28;;;21.33;54.78
15568;BME280;7885;42.596;23.044;2023-05-22T11:38:58;92732.59;;;21.47;54.10
15568;BME280;7885;42.596;23.044;2023-05-22T11:41:29;92735.50;;;21.52;54.05
15568;BME280;7885;42.596;23.044;2023-05-22T11:43:56;92736.66;;;21.70;54.54
15568;BME280;7885;42.596;23.044;2023-05-22T11:46:23;92732.56;;;21.89;53.37
15568;BME280;7885;42.596;23.044;2023-05-22T11:48:51;92728.38;;;22.17;51.30
15568;BME280;7885;42.596;23.044;2023-05-22T11:51:18;92721.63;;;22.56;50.45
15568;BME280;7885;42.596;23.044;2023-05-22T11:53:45;92728.56;;;22.76;48.66
15568;BME280;7885;42.596;23.044;2023-05-22T11:56:13;92725.66;;;23.08;47.86
15568;BME280;7885;42.596;23.044;2023-05-22T11:58:40;92724.97;;;23.28;47.84
15568;BME280;7885;42.596;23.044;2023-05-22T12:01:07;92727.28;;;23.15;47.31
15568;BME280;7885;42.596;23.044;2023-05-22T12:03:33;92731.97;;;23.09;48.71
15568;BME280;7885;42.596;23.044;2023-05-22T12:06:00;92734.16;;;23.05;49.31
15568;BME280;7885;42.596;23.044;2023-05-22T12:08:27;92738.75;;;22.79;51.59
15568;BME280;7885;42.596;23.044;2023-05-22T12:10:54;92777.22;;;21.91;53.12
15568;BME280;7885;42.596;23.044;2023-05-22T12:13:26;92767.94;;;20.83;55.66
15568;BME280;7885;42.596;23.044;2023-05-22T12:15:56;92781.50;;;20.44;57.41
15568;BME280;7885;42.596;23.044;2023-05-22T12:18:24;92791.25;;;19.60;60.90
15568;BME280;7885;42.596;23.044;2023-05-22T12:20:51;92790.63;;;19.34;63.77
15568;BME280;7885;42.596;23.044;2023-05-22T12:23:20;92797.72;;;19.13;64.92
15568;BME280;7885;42.596;23.044;2023-05-22T12:25:55;92807.75;;;18.77;67.70
15568;BME280;7885;42.596;23.044;2023-05-22T12:28:22;92816.78;;;18.55;70.56
15568;BME280;7885;42.596;23.044;2023-05-22T12:30:52;92813.25;;;18.55;71.90
15568;BME280;7885;42.596;23.044;2023-05-22T12:33:24;92817.41;;;18.59;73.33
15568;BME280;7885;42.596;23.044;2023-05-22T12:35:51;92797.47;;;18.55;73.78
15568;BME280;7885;42.596;23.044;2023-05-22T12:38:19;92797.09;;;18.66;75.14
15568;BME280;7885;42.596;23.044;2023-05-22T12:40:46;92795.47;;;18.69;72.13
15568;BME280;7885;42.596;23.044;2023-05-22T12:43:13;92791.41;;;18.60;73.44
15568;BME280;7885;42.596;23.044;2023-05-22T12:45:40;92791.84;;;18.59;75.89
15568;BME280;7885;42.596;23.044;2023-05-22T12:48:08;92780.69;;;18.62;77.17
15568;BME280;7885;42.596;23.044;2023-05-22T12:50:36;92788.41;;;18.67;77.80
15568;BME280;7885;42.596;23.044;2023-05-22T12:53:03;92780.38;;;18.60;79.36
15568;BME280;7885;42.596;23.044;2023-05-22T12:55:29;92773.44;;;18.56;78.59
15568;BME280;7885;42.596;23.044;2023-05-22T12:57:56;92767.13;;;18.68;79.10
15568;BME280;7885;42.596;23.044;2023-05-22T13:00:23;92761.69;;;18.86;78.54
15568;BME280;7885;42.596;23.044;2023-05-22T13:02:50;92747.84;;;18.99;79.11
15568;BME280;7885;42.596;23.044;2023-05-22T13:05:18;92749.47;;;19.18;78.02
15568;BME280;7885;42.596;23.044;2023-05-22T13:07:45;92743.69;;;19.25;72.95